Pioneer Town, Texas
Current Conditions -  °F | °C
As of 7:35 PM on Thursday 27 Nov 2014 (Local Time) from KHYI Reporting Station
Clear Clear  
Wind Chill: 48°   Ceiling: Unl
Heat Index: 48°   Visibility: 10mi
Dew Point: 30°   Wind: 0mph
Humidity: 50%   Direction: NA
Pressure: 30.42"   Gusts: NA
Location:  30.0586°N, 98.15°W
Report Text: KHYI 280135Z 00000KT 10SM CLR 09/M01 A3042 RMK AO1
Loading
Personal Weather Stations






























Interactive Weather Map New forecast layout! Learn more

10-Day Weather Forecast

Advertisements
Track Severe Weather on mobile